sensor_id;sensor_type;location;lat;lon;timestamp;temperature;humidity
2002;DHT22;1003;48.002;7.788;2023-07-24T00:00:41;20.10;99.90
2002;DHT22;1003;48.002;7.788;2023-07-24T00:03:08;20.10;99.90
2002;DHT22;1003;48.002;7.788;2023-07-24T00:05:35;20.10;99.90
2002;DHT22;1003;48.002;7.788;2023-07-24T00:08:02;20.00;99.90
2002;DHT22;1003;48.002;7.788;2023-07-24T00:10:29;19.80;99.90
2002;DHT22;1003;48.002;7.788;2023-07-24T00:12:56;19.60;99.90
2002;DHT22;1003;48.002;7.788;2023-07-24T00:15:23;19.50;99.90
2002;DHT22;1003;48.002;7.788;2023-07-24T00:17:52;19.50;99.90
2002;DHT22;1003;48.002;7.788;2023-07-24T00:20:19;19.40;99.90
2002;DHT22;1003;48.002;7.788;2023-07-24T00:22:46;19.40;99.90
2002;DHT22;1003;48.002;7.788;2023-07-24T00:25:13;19.40;99.90
2002;DHT22;1003;48.002;7.788;2023-07-24T00:27:40;19.50;99.90
2002;DHT22;1003;48.002;7.788;2023-07-24T00:30:08;19.50;99.90
2002;DHT22;1003;48.002;7.788;2023-07-24T00:32:36;19.60;99.90
2002;DHT22;1003;48.002;7.788;2023-07-24T00:35:06;19.70;99.90
2002;DHT22;1003;48.002;7.788;2023-07-24T00:37:34;19.70;99.90
2002;DHT22;1003;48.002;7.788;2023-07-24T00:40:01;19.70;99.90
2002;DHT22;1003;48.002;7.788;2023-07-24T00:42:29;19.80;99.90
2002;DHT22;1003;48.002;7.788;2023-07-24T00:44:56;19.70;99.90
2002;DHT22;1003;48.002;7.788;2023-07-24T00:47:24;19.80;99.90
2002;DHT22;1003;48.002;7.788;2023-07-24T00:49:53;19.70;99.90
2002;DHT22;1003;48.002;7.788;2023-07-24T00:52:23;19.70;99.90
2002;DHT22;1003;48.002;7.788;2023-07-24T00:54:51;19.60;99.90
2002;DHT22;1003;48.002;7.788;2023-07-24T00:57:19;19.40;99.90
2002;DHT22;1003;48.002;7.788;2023-07-24T00:59:46;19.30;99.90
2002;DHT22;1003;48.002;7.788;2023-07-24T01:02:13;19.30;99.90
2002;DHT22;1003;48.002;7.788;2023-07-24T01:04:40;19.20;99.90
2002;DHT22;1003;48.002;7.788;2023-07-24T01:07:08;19.10;99.90
2002;DHT22;1003;48.002;7.788;2023-07-24T01:09:37;19.00;99.90
2002;DHT22;1003;48.002;7.788;2023-07-24T01:12:10;19.00;99.90
2002;DHT22;1003;48.002;7.788;2023-07-24T01:14:46;19.00;99.90
2002;DHT22;1003;48.002;7.788;2023-07-24T01:17:20;19.00;99.90
2002;DHT22;1003;48.002;7.788;2023-07-24T01:19:55;19.10;99.90
2002;DHT22;1003;48.002;7.788;2023-07-24T01:22:30;19.20;99.90
2002;DHT22;1003;48.002;7.788;2023-07-24T01:25:10;19.40;99.90
2002;DHT22;1003;48.002;7.788;2023-07-24T01:27:46;19.60;99.90
2002;DHT22;1003;48.002;7.788;2023-07-24T01:30:16;19.70;99.90
2002;DHT22;1003;48.002;7.788;2023-07-24T01:32:44;19.80;99.90
2002;DHT22;1003;48.002;7.788;2023-07-24T01:35:11;19.80;99.90
2002;DHT22;1003;48.002;7.788;2023-07-24T01:37:38;19.80;99.90
2002;DHT22;1003;48.002;7.788;2023-07-24T01:40:09;19.80;99.90
2002;DHT22;1003;48.002;7.788;2023-07-24T01:42:37;19.70;99.90
2002;DHT22;1003;48.002;7.788;2023-07-24T01:45:07;19.70;99.90
2002;DHT22;1003;48.002;7.788;2023-07-24T01:47:37;19.70;99.90
2002;DHT22;1003;48.002;7.788;2023-07-24T01:50:06;19.70;99.90
2002;DHT22;1003;48.002;7.788;2023-07-24T01:52:33;19.70;99.90
2002;DHT22;1003;48.002;7.788;2023-07-24T01:55:00;19.70;99.90
2002;DHT22;1003;48.002;7.788;2023-07-24T01:57:27;19.70;99.90
2002;DHT22;1003;48.002;7.788;2023-07-24T01:59:54;19.60;99.90
2002;DHT22;1003;48.002;7.788;2023-07-24T02:02:23;19.50;99.90
2002;DHT22;1003;48.002;7.788;2023-07-24T02:04:50;19.20;99.90
2002;DHT22;1003;48.002;7.788;2023-07-24T02:07:17;19.00;99.90
2002;DHT22;1003;48.002;7.788;2023-07-24T02:09:45;19.00;99.90
2002;DHT22;1003;48.002;7.788;2023-07-24T02:12:12;18.90;99.90
2002;DHT22;1003;48.002;7.788;2023-07-24T02:14:39;18.90;99.90
2002;DHT22;1003;48.002;7.788;2023-07-24T02:17:06;18.80;99.90
2002;DHT22;1003;48.002;7.788;2023-07-24T02:19:34;18.80;99.90
2002;DHT22;1003;48.002;7.788;2023-07-24T02:22:01;18.80;99.90
2002;DHT22;1003;48.002;7.788;2023-07-24T02:24:28;18.80;99.90
2002;DHT22;1003;48.002;7.788;2023-07-24T02:26:55;18.80;99.90
2002;DHT22;1003;48.002;7.788;2023-07-24T02:29:22;18.80;99.90
2002;DHT22;1003;48.002;7.788;2023-07-24T02:31:50;18.80;99.90
2002;DHT22;1003;48.002;7.788;2023-07-24T02:34:17;18.80;99.90
2002;DHT22;1003;48.002;7.788;2023-07-24T02:36:45;18.90;99.90
2002;DHT22;1003;48.002;7.788;2023-07-24T02:39:12;18.90;99.90
2002;DHT22;1003;48.002;7.788;2023-07-24T02:41:39;19.00;99.90
2002;DHT22;1003;48.002;7.788;2023-07-24T02:44:06;18.90;99.90
2002;DHT22;1003;48.002;7.788;2023-07-24T02:46:33;19.00;99.90
2002;DHT22;1003;48.002;7.788;2023-07-24T02:49:00;19.10;99.90
2002;DHT22;1003;48.002;7.788;2023-07-24T02:51:28;19.10;99.90
2002;DHT22;1003;48.002;7.788;2023-07-24T02:53:56;19.10;99.90
2002;DHT22;1003;48.002;7.788;2023-07-24T02:56:23;19.20;99.90
2002;DHT22;1003;48.002;7.788;2023-07-24T02:58:50;19.20;99.90
2002;DHT22;1003;48.002;7.788;2023-07-24T03:01:17;19.30;99.90
2002;DHT22;1003;48.002;7.788;2023-07-24T03:03:44;19.30;99.90
2002;DHT22;1003;48.002;7.788;2023-07-24T03:06:11;19.30;99.90
2002;DHT22;1003;48.002;7.788;2023-07-24T03:08:38;19.40;99.90
2002;DHT22;1003;48.002;7.788;2023-07-24T03:11:07;19.30;99.90
2002;DHT22;1003;48.002;7.788;2023-07-24T03:13:34;19.30;99.90
2002;DHT22;1003;48.002;7.788;2023-07-24T03:16:01;19.20;99.90
2002;DHT22;1003;48.002;7.788;2023-07-24T03:18:28;19.00;99.90
2002;DHT22;1003;48.002;7.788;2023-07-24T03:20:57;18.90;99.90
2002;DHT22;1003;48.002;7.788;2023-07-24T03:23:25;18.80;99.90
2002;DHT22;1003;48.002;7.788;2023-07-24T03:25:52;18.80;99.90
2002;DHT22;1003;48.002;7.788;2023-07-24T03:28:20;18.80;99.90
2002;DHT22;1003;48.002;7.788;2023-07-24T03:30:47;18.70;99.90
2002;DHT22;1003;48.002;7.788;2023-07-24T03:33:14;18.60;99.90
2002;DHT22;1003;48.002;7.788;2023-07-24T03:35:43;18.50;99.90
2002;DHT22;1003;48.002;7.788;2023-07-24T03:38:10;18.30;99.90
2002;DHT22;1003;48.002;7.788;2023-07-24T03:40:37;18.10;99.90
2002;DHT22;1003;48.002;7.788;2023-07-24T03:43:04;18.00;99.90
2002;DHT22;1003;48.002;7.788;2023-07-24T03:45:32;17.90;99.90
2002;DHT22;1003;48.002;7.788;2023-07-24T03:47:59;17.90;99.90
2002;DHT22;1003;48.002;7.788;2023-07-24T03:50:29;17.90;99.90
2002;DHT22;1003;48.002;7.788;2023-07-24T03:52:56;18.00;99.90
2002;DHT22;1003;48.002;7.788;2023-07-24T03:55:23;18.00;99.90
2002;DHT22;1003;48.002;7.788;2023-07-24T03:57:50;18.00;99.90
2002;DHT22;1003;48.002;7.788;2023-07-24T04:00:17;17.90;99.90
2002;DHT22;1003;48.002;7.788;2023-07-24T04:02:46;17.90;99.90
2002;DHT22;1003;48.002;7.788;2023-07-24T04:05:14;17.90;99.90
2002;DHT22;1003;48.002;7.788;2023-07-24T04:07:41;17.90;99.90
2002;DHT22;1003;48.002;7.788;2023-07-24T04:10:08;18.00;99.90
2002;DHT22;1003;48.002;7.788;2023-07-24T04:12:36;18.00;99.90
2002;DHT22;1003;48.002;7.788;2023-07-24T04:15:03;17.90;99.90
2002;DHT22;1003;48.002;7.788;2023-07-24T04:17:31;17.90;99.90
2002;DHT22;1003;48.002;7.788;2023-07-24T04:19:59;17.90;99.90
2002;DHT22;1003;48.002;7.788;2023-07-24T04:22:26;17.90;99.90
2002;DHT22;1003;48.002;7.788;2023-07-24T04:24:53;18.00;99.90
2002;DHT22;1003;48.002;7.788;2023-07-24T04:27:20;18.00;99.90
2002;DHT22;1003;48.002;7.788;2023-07-24T04:29:47;18.00;99.90
2002;DHT22;1003;48.002;7.788;2023-07-24T04:32:14;18.00;99.90
2002;DHT22;1003;48.002;7.788;2023-07-24T04:34:41;18.00;99.90
2002;DHT22;1003;48.002;7.788;2023-07-24T04:37:10;18.00;99.90
2002;DHT22;1003;48.002;7.788;2023-07-24T04:39:39;18.10;99.90
2002;DHT22;1003;48.002;7.788;2023-07-24T04:42:06;18.10;99.90
2002;DHT22;1003;48.002;7.788;2023-07-24T04:44:33;18.20;99.90
2002;DHT22;1003;48.002;7.788;2023-07-24T04:47:01;18.20;99.90
2002;DHT22;1003;48.002;7.788;2023-07-24T04:49:28;18.30;99.90
2002;DHT22;1003;48.002;7.788;2023-07-24T04:51:56;18.40;99.90
2002;DHT22;1003;48.002;7.788;2023-07-24T04:54:24;18.50;99.90
2002;DHT22;1003;48.002;7.788;2023-07-24T04:56:51;18.60;99.90
2002;DHT22;1003;48.002;7.788;2023-07-24T04:59:18;18.70;99.90
2002;DHT22;1003;48.002;7.788;2023-07-24T05:01:45;18.70;99.90
2002;DHT22;1003;48.002;7.788;2023-07-24T05:04:12;18.80;99.90
2002;DHT22;1003;48.002;7.788;2023-07-24T05:06:39;18.90;99.90
2002;DHT22;1003;48.002;7.788;2023-07-24T05:09:06;18.90;99.90
2002;DHT22;1003;48.002;7.788;2023-07-24T05:11:35;19.00;99.90
2002;DHT22;1003;48.002;7.788;2023-07-24T05:14:02;19.00;99.90
2002;DHT22;1003;48.002;7.788;2023-07-24T05:16:29;19.10;99.90
2002;DHT22;1003;48.002;7.788;2023-07-24T05:18:56;19.10;99.90
2002;DHT22;1003;48.002;7.788;2023-07-24T05:21:23;19.20;99.90
2002;DHT22;1003;48.002;7.788;2023-07-24T05:23:50;19.30;99.90
2002;DHT22;1003;48.002;7.788;2023-07-24T05:26:17;19.40;99.90
2002;DHT22;1003;48.002;7.788;2023-07-24T05:28:46;19.40;99.90
2002;DHT22;1003;48.002;7.788;2023-07-24T05:31:13;19.50;99.90
2002;DHT22;1003;48.002;7.788;2023-07-24T05:33:40;19.70;99.90
2002;DHT22;1003;48.002;7.788;2023-07-24T05:36:07;19.70;99.90
2002;DHT22;1003;48.002;7.788;2023-07-24T05:38:34;19.80;99.90
2002;DHT22;1003;48.002;7.788;2023-07-24T05:41:02;19.90;99.90
2002;DHT22;1003;48.002;7.788;2023-07-24T05:43:30;19.90;99.90
2002;DHT22;1003;48.002;7.788;2023-07-24T05:45:59;20.00;99.90
2002;DHT22;1003;48.002;7.788;2023-07-24T05:48:26;20.10;99.90
2002;DHT22;1003;48.002;7.788;2023-07-24T05:50:53;20.20;99.90
2002;DHT22;1003;48.002;7.788;2023-07-24T05:53:20;20.30;99.90
2002;DHT22;1003;48.002;7.788;2023-07-24T05:55:47;20.40;99.90
2002;DHT22;1003;48.002;7.788;2023-07-24T05:58:23;20.50;99.90
2002;DHT22;1003;48.002;7.788;2023-07-24T06:00:50;20.60;99.90
2002;DHT22;1003;48.002;7.788;2023-07-24T06:03:18;20.70;99.90
2002;DHT22;1003;48.002;7.788;2023-07-24T06:05:45;20.80;99.90
2002;DHT22;1003;48.002;7.788;2023-07-24T06:08:12;20.90;99.90
2002;DHT22;1003;48.002;7.788;2023-07-24T06:10:39;21.00;99.90
2002;DHT22;1003;48.002;7.788;2023-07-24T06:13:06;21.20;99.90
2002;DHT22;1003;48.002;7.788;2023-07-24T06:15:33;21.40;99.90
2002;DHT22;1003;48.002;7.788;2023-07-24T06:18:00;21.60;99.90
2002;DHT22;1003;48.002;7.788;2023-07-24T06:20:28;21.70;99.90
2002;DHT22;1003;48.002;7.788;2023-07-24T06:22:55;22.10;99.90
2002;DHT22;1003;48.002;7.788;2023-07-24T06:25:22;22.30;99.90
2002;DHT22;1003;48.002;7.788;2023-07-24T06:27:49;22.50;99.90
2002;DHT22;1003;48.002;7.788;2023-07-24T06:30:16;22.70;99.90
2002;DHT22;1003;48.002;7.788;2023-07-24T06:32:43;22.80;99.90
2002;DHT22;1003;48.002;7.788;2023-07-24T06:35:10;22.70;99.90
2002;DHT22;1003;48.002;7.788;2023-07-24T06:37:39;22.50;99.90
2002;DHT22;1003;48.002;7.788;2023-07-24T06:40:07;22.40;99.90
2002;DHT22;1003;48.002;7.788;2023-07-24T06:42:34;22.20;99.90
2002;DHT22;1003;48.002;7.788;2023-07-24T06:45:02;22.00;99.90
2002;DHT22;1003;48.002;7.788;2023-07-24T06:47:29;21.90;99.90
2002;DHT22;1003;48.002;7.788;2023-07-24T06:49:56;21.90;99.90
2002;DHT22;1003;48.002;7.788;2023-07-24T06:52:24;21.90;99.90
2002;DHT22;1003;48.002;7.788;2023-07-24T06:54:52;21.90;99.90
2002;DHT22;1003;48.002;7.788;2023-07-24T06:57:19;21.90;99.90
2002;DHT22;1003;48.002;7.788;2023-07-24T06:59:46;21.90;99.90
2002;DHT22;1003;48.002;7.788;2023-07-24T07:02:13;21.90;99.90
2002;DHT22;1003;48.002;7.788;2023-07-24T07:04:40;21.80;99.90
2002;DHT22;1003;48.002;7.788;2023-07-24T07:07:07;21.90;99.90
2002;DHT22;1003;48.002;7.788;2023-07-24T07:09:35;22.10;99.90
2002;DHT22;1003;48.002;7.788;2023-07-24T07:12:04;22.30;99.90
2002;DHT22;1003;48.002;7.788;2023-07-24T07:14:32;22.60;99.90
2002;DHT22;1003;48.002;7.788;2023-07-24T07:16:59;23.00;99.90
2002;DHT22;1003;48.002;7.788;2023-07-24T07:19:27;23.40;99.90
2002;DHT22;1003;48.002;7.788;2023-07-24T07:21:54;23.50;99.90
2002;DHT22;1003;48.002;7.788;2023-07-24T07:24:21;23.50;99.90
2002;DHT22;1003;48.002;7.788;2023-07-24T07:26:48;23.40;99.90
2002;DHT22;1003;48.002;7.788;2023-07-24T07:29:17;23.30;99.90
2002;DHT22;1003;48.002;7.788;2023-07-24T07:31:44;23.20;99.90
2002;DHT22;1003;48.002;7.788;2023-07-24T07:34:11;23.00;99.90
2002;DHT22;1003;48.002;7.788;2023-07-24T07:36:38;22.80;99.90
2002;DHT22;1003;48.002;7.788;2023-07-24T07:39:05;22.60;99.90
2002;DHT22;1003;48.002;7.788;2023-07-24T07:41:32;22.50;99.90
2002;DHT22;1003;48.002;7.788;2023-07-24T07:44:00;22.30;99.90
2002;DHT22;1003;48.002;7.788;2023-07-24T07:46:28;22.10;99.90
2002;DHT22;1003;48.002;7.788;2023-07-24T07:48:55;22.00;99.90
2002;DHT22;1003;48.002;7.788;2023-07-24T07:51:22;21.90;99.90
2002;DHT22;1003;48.002;7.788;2023-07-24T07:53:51;21.70;99.90
2002;DHT22;1003;48.002;7.788;2023-07-24T07:56:18;21.60;99.90
2002;DHT22;1003;48.002;7.788;2023-07-24T07:58:45;21.50;99.90
2002;DHT22;1003;48.002;7.788;2023-07-24T08:01:12;21.40;99.90
2002;DHT22;1003;48.002;7.788;2023-07-24T08:03:41;21.30;99.90
2002;DHT22;1003;48.002;7.788;2023-07-24T08:06:08;21.10;99.90
2002;DHT22;1003;48.002;7.788;2023-07-24T08:08:35;21.10;99.90
2002;DHT22;1003;48.002;7.788;2023-07-24T08:11:04;21.00;99.90
2002;DHT22;1003;48.002;7.788;2023-07-24T08:13:32;20.80;99.90
2002;DHT22;1003;48.002;7.788;2023-07-24T08:16:00;20.80;99.90
2002;DHT22;1003;48.002;7.788;2023-07-24T08:18:28;20.80;99.90
2002;DHT22;1003;48.002;7.788;2023-07-24T08:20:57;20.80;99.90
2002;DHT22;1003;48.002;7.788;2023-07-24T08:23:24;20.80;99.90
2002;DHT22;1003;48.002;7.788;2023-07-24T08:25:52;21.00;99.90
2002;DHT22;1003;48.002;7.788;2023-07-24T08:28:19;21.00;99.90
2002;DHT22;1003;48.002;7.788;2023-07-24T08:30:55;21.10;99.90
2002;DHT22;1003;48.002;7.788;2023-07-24T08:33:23;21.30;99.90
2002;DHT22;1003;48.002;7.788;2023-07-24T08:35:59;21.50;99.90
2002;DHT22;1003;48.002;7.788;2023-07-24T08:38:28;21.40;99.90
2002;DHT22;1003;48.002;7.788;2023-07-24T08:41:04;21.40;99.90
2002;DHT22;1003;48.002;7.788;2023-07-24T08:43:33;21.20;99.90
2002;DHT22;1003;48.002;7.788;2023-07-24T08:46:03;21.10;99.90
2002;DHT22;1003;48.002;7.788;2023-07-24T08:48:32;21.00;99.90
2002;DHT22;1003;48.002;7.788;2023-07-24T08:51:03;20.90;99.90
2002;DHT22;1003;48.002;7.788;2023-07-24T08:53:32;20.70;99.90
2002;DHT22;1003;48.002;7.788;2023-07-24T08:56:02;20.60;99.90
2002;DHT22;1003;48.002;7.788;2023-07-24T08:58:30;20.50;99.90
2002;DHT22;1003;48.002;7.788;2023-07-24T09:00:57;20.40;99.90
2002;DHT22;1003;48.002;7.788;2023-07-24T09:03:25;20.30;99.90
2002;DHT22;1003;48.002;7.788;2023-07-24T09:05:53;20.10;99.90
2002;DHT22;1003;48.002;7.788;2023-07-24T09:08:30;20.00;99.90
2002;DHT22;1003;48.002;7.788;2023-07-24T09:10:57;20.10;99.90
2002;DHT22;1003;48.002;7.788;2023-07-24T09:13:25;20.00;99.90
2002;DHT22;1003;48.002;7.788;2023-07-24T09:15:52;19.90;99.90
2002;DHT22;1003;48.002;7.788;2023-07-24T09:18:20;19.80;99.90
2002;DHT22;1003;48.002;7.788;2023-07-24T09:20:49;19.70;99.90
2002;DHT22;1003;48.002;7.788;2023-07-24T09:23:25;19.60;99.90
2002;DHT22;1003;48.002;7.788;2023-07-24T09:25:54;19.30;99.90
2002;DHT22;1003;48.002;7.788;2023-07-24T09:28:22;19.10;99.90
2002;DHT22;1003;48.002;7.788;2023-07-24T09:30:53;19.00;99.90
2002;DHT22;1003;48.002;7.788;2023-07-24T09:33:22;19.00;99.90
2002;DHT22;1003;48.002;7.788;2023-07-24T09:35:59;18.80;99.90
2002;DHT22;1003;48.002;7.788;2023-07-24T09:38:26;18.80;99.90
2002;DHT22;1003;48.002;7.788;2023-07-24T09:40:56;18.90;99.90
2002;DHT22;1003;48.002;7.788;2023-07-24T09:43:25;19.00;99.90
2002;DHT22;1003;48.002;7.788;2023-07-24T09:45:54;19.00;99.90
2002;DHT22;1003;48.002;7.788;2023-07-24T09:48:23;18.80;99.90
2002;DHT22;1003;48.002;7.788;2023-07-24T09:50:54;18.80;99.90
2002;DHT22;1003;48.002;7.788;2023-07-24T09:53:26;18.90;99.90
2002;DHT22;1003;48.002;7.788;2023-07-24T09:56:02;18.90;99.90
2002;DHT22;1003;48.002;7.788;2023-07-24T09:58:32;18.90;99.90
2002;DHT22;1003;48.002;7.788;2023-07-24T10:08:23;18.80;99.90
2002;DHT22;1003;48.002;7.788;2023-07-24T10:10:51;18.70;99.90
2002;DHT22;1003;48.002;7.788;2023-07-24T10:13:21;18.70;99.90
2002;DHT22;1003;48.002;7.788;2023-07-24T10:15:49;18.70;99.90
2002;DHT22;1003;48.002;7.788;2023-07-24T10:18:17;18.50;99.90
2002;DHT22;1003;48.002;7.788;2023-07-24T10:21:00;18.40;99.90
2002;DHT22;1003;48.002;7.788;2023-07-24T10:23:28;18.20;99.90
2002;DHT22;1003;48.002;7.788;2023-07-24T10:26:01;18.20;99.90
2002;DHT22;1003;48.002;7.788;2023-07-24T10:28:33;18.20;99.90
2002;DHT22;1003;48.002;7.788;2023-07-24T10:31:04;18.20;99.90
2002;DHT22;1003;48.002;7.788;2023-07-24T10:33:35;18.50;99.90
2002;DHT22;1003;48.002;7.788;2023-07-24T10:36:10;19.00;99.90
2002;DHT22;1003;48.002;7.788;2023-07-24T10:38:40;19.40;99.90
2002;DHT22;1003;48.002;7.788;2023-07-24T10:41:09;19.90;99.90
2002;DHT22;1003;48.002;7.788;2023-07-24T10:43:44;20.30;99.90
2002;DHT22;1003;48.002;7.788;2023-07-24T10:46:13;20.50;99.90
2002;DHT22;1003;48.002;7.788;2023-07-24T10:48:42;21.00;99.90
2002;DHT22;1003;48.002;7.788;2023-07-24T10:51:11;21.50;99.90
2002;DHT22;1003;48.002;7.788;2023-07-24T10:53:42;21.60;99.90
2002;DHT22;1003;48.002;7.788;2023-07-24T10:56:10;21.70;99.90
2002;DHT22;1003;48.002;7.788;2023-07-24T10:58:38;22.20;99.90
2002;DHT22;1003;48.002;7.788;2023-07-24T11:01:07;22.60;99.90
2002;DHT22;1003;48.002;7.788;2023-07-24T11:03:37;23.00;99.90
2002;DHT22;1003;48.002;7.788;2023-07-24T11:06:04;23.20;99.90
2002;DHT22;1003;48.002;7.788;2023-07-24T11:08:31;23.30;99.90
2002;DHT22;1003;48.002;7.788;2023-07-24T11:11:02;23.60;99.90
2002;DHT22;1003;48.002;7.788;2023-07-24T11:13:29;23.60;99.90
2002;DHT22;1003;48.002;7.788;2023-07-24T11:16:04;23.60;99.90
2002;DHT22;1003;48.002;7.788;2023-07-24T11:18:44;23.60;99.90
2002;DHT22;1003;48.002;7.788;2023-07-24T11:21:13;23.90;99.90
2002;DHT22;1003;48.002;7.788;2023-07-24T11:23:45;23.80;99.90
2002;DHT22;1003;48.002;7.788;2023-07-24T11:26:14;23.90;99.90
2002;DHT22;1003;48.002;7.788;2023-07-24T11:28:42;24.20;99.90
2002;DHT22;1003;48.002;7.788;2023-07-24T11:31:10;23.80;99.90
2002;DHT22;1003;48.002;7.788;2023-07-24T11:33:38;23.80;99.90
2002;DHT22;1003;48.002;7.788;2023-07-24T11:36:06;23.80;99.90
2002;DHT22;1003;48.002;7.788;2023-07-24T11:38:34;23.80;99.90
2002;DHT22;1003;48.002;7.788;2023-07-24T11:41:03;23.60;99.90
2002;DHT22;1003;48.002;7.788;2023-07-24T11:43:31;23.40;99.90
2002;DHT22;1003;48.002;7.788;2023-07-24T11:45:58;23.20;99.90
2002;DHT22;1003;48.002;7.788;2023-07-24T11:48:26;23.00;99.90
2002;DHT22;1003;48.002;7.788;2023-07-24T11:50:55;22.60;99.90
2002;DHT22;1003;48.002;7.788;2023-07-24T11:53:23;22.30;99.90
2002;DHT22;1003;48.002;7.788;2023-07-24T11:55:52;22.30;99.90
2002;DHT22;1003;48.002;7.788;2023-07-24T11:58:21;22.40;99.90
2002;DHT22;1003;48.002;7.788;2023-07-24T12:00:48;22.50;99.90
2002;DHT22;1003;48.002;7.788;2023-07-24T12:03:19;22.80;99.90
2002;DHT22;1003;48.002;7.788;2023-07-24T12:05:48;23.10;99.90
2002;DHT22;1003;48.002;7.788;2023-07-24T12:08:16;23.00;99.90
2002;DHT22;1003;48.002;7.788;2023-07-24T12:10:44;23.20;99.90
2002;DHT22;1003;48.002;7.788;2023-07-24T12:13:12;23.00;99.90
2002;DHT22;1003;48.002;7.788;2023-07-24T12:15:39;22.80;99.90
2002;DHT22;1003;48.002;7.788;2023-07-24T12:18:06;22.80;99.90
2002;DHT22;1003;48.002;7.788;2023-07-24T12:20:34;22.60;99.90
2002;DHT22;1003;48.002;7.788;2023-07-24T12:23:02;22.50;99.90
2002;DHT22;1003;48.002;7.788;2023-07-24T12:25:30;22.30;99.90
2002;DHT22;1003;48.002;7.788;2023-07-24T12:27:57;22.20;99.90
2002;DHT22;1003;48.002;7.788;2023-07-24T12:30:24;22.30;99.90
2002;DHT22;1003;48.002;7.788;2023-07-24T12:32:52;22.50;99.90
2002;DHT22;1003;48.002;7.788;2023-07-24T12:35:19;22.80;99.90
2002;DHT22;1003;48.002;7.788;2023-07-24T12:37:46;23.00;99.90
2002;DHT22;1003;48.002;7.788;2023-07-24T12:40:14;22.80;99.90
2002;DHT22;1003;48.002;7.788;2023-07-24T12:42:42;22.80;99.90
2002;DHT22;1003;48.002;7.788;2023-07-24T12:45:09;22.70;99.90
2002;DHT22;1003;48.002;7.788;2023-07-24T12:47:36;22.50;99.90
2002;DHT22;1003;48.002;7.788;2023-07-24T12:50:06;22.50;99.90
2002;DHT22;1003;48.002;7.788;2023-07-24T12:52:34;22.40;99.90
2002;DHT22;1003;48.002;7.788;2023-07-24T12:55:01;22.60;99.90
2002;DHT22;1003;48.002;7.788;2023-07-24T12:57:29;22.70;99.90
2002;DHT22;1003;48.002;7.788;2023-07-24T12:59:56;22.70;99.90
2002;DHT22;1003;48.002;7.788;2023-07-24T13:02:23;22.60;99.90
2002;DHT22;1003;48.002;7.788;2023-07-24T13:04:51;22.50;99.90
2002;DHT22;1003;48.002;7.788;2023-07-24T13:07:19;22.30;99.90
2002;DHT22;1003;48.002;7.788;2023-07-24T13:09:46;22.00;99.90
2002;DHT22;1003;48.002;7.788;2023-07-24T13:12:13;21.90;99.90
2002;DHT22;1003;48.002;7.788;2023-07-24T13:14:41;21.80;99.90
2002;DHT22;1003;48.002;7.788;2023-07-24T13:17:09;21.70;99.90
2002;DHT22;1003;48.002;7.788;2023-07-24T13:19:36;21.60;99.90
2002;DHT22;1003;48.002;7.788;2023-07-24T13:22:03;21.60;99.90
2002;DHT22;1003;48.002;7.788;2023-07-24T13:24:31;21.50;99.90
2002;DHT22;1003;48.002;7.788;2023-07-24T13:26:58;21.40;99.90
2002;DHT22;1003;48.002;7.788;2023-07-24T13:29:25;21.10;99.90
2002;DHT22;1003;48.002;7.788;2023-07-24T13:31:53;20.70;99.90
2002;DHT22;1003;48.002;7.788;2023-07-24T13:34:24;20.40;99.90
2002;DHT22;1003;48.002;7.788;2023-07-24T13:36:51;20.20;99.90
2002;DHT22;1003;48.002;7.788;2023-07-24T13:39:19;20.30;99.90
2002;DHT22;1003;48.002;7.788;2023-07-24T13:41:46;20.50;99.90
2002;DHT22;1003;48.002;7.788;2023-07-24T13:44:13;20.70;99.90
2002;DHT22;1003;48.002;7.788;2023-07-24T13:46:40;20.70;99.90
2002;DHT22;1003;48.002;7.788;2023-07-24T13:49:09;20.70;99.90
2002;DHT22;1003;48.002;7.788;2023-07-24T13:51:36;21.00;99.90
2002;DHT22;1003;48.002;7.788;2023-07-24T13:54:03;21.10;99.90
2002;DHT22;1003;48.002;7.788;2023-07-24T13:56:30;21.00;99.90
2002;DHT22;1003;48.002;7.788;2023-07-24T13:59:00;21.00;99.90
2002;DHT22;1003;48.002;7.788;2023-07-24T14:01:28;21.00;99.90
2002;DHT22;1003;48.002;7.788;2023-07-24T14:03:56;21.10;99.90
2002;DHT22;1003;48.002;7.788;2023-07-24T14:06:24;21.00;99.90
2002;DHT22;1003;48.002;7.788;2023-07-24T14:08:52;21.10;99.90
2002;DHT22;1003;48.002;7.788;2023-07-24T14:11:20;21.30;99.90
2002;DHT22;1003;48.002;7.788;2023-07-24T14:13:49;21.50;99.90
2002;DHT22;1003;48.002;7.788;2023-07-24T14:16:16;21.50;99.90
2002;DHT22;1003;48.002;7.788;2023-07-24T14:18:43;21.60;99.90
2002;DHT22;1003;48.002;7.788;2023-07-24T14:21:10;21.80;99.90
2002;DHT22;1003;48.002;7.788;2023-07-24T14:23:38;21.90;99.90
2002;DHT22;1003;48.002;7.788;2023-07-24T14:26:06;21.80;99.90
2002;DHT22;1003;48.002;7.788;2023-07-24T14:28:33;21.90;99.90
2002;DHT22;1003;48.002;7.788;2023-07-24T14:31:00;21.90;99.90
2002;DHT22;1003;48.002;7.788;2023-07-24T14:33:27;21.90;99.90
2002;DHT22;1003;48.002;7.788;2023-07-24T14:35:54;22.00;99.90
2002;DHT22;1003;48.002;7.788;2023-07-24T14:38:21;22.10;99.90
2002;DHT22;1003;48.002;7.788;2023-07-24T14:40:50;22.00;99.90
2002;DHT22;1003;48.002;7.788;2023-07-24T14:43:17;22.10;99.90
2002;DHT22;1003;48.002;7.788;2023-07-24T14:45:44;22.20;99.90
2002;DHT22;1003;48.002;7.788;2023-07-24T14:48:12;22.50;99.90
2002;DHT22;1003;48.002;7.788;2023-07-24T14:50:40;22.70;99.90
2002;DHT22;1003;48.002;7.788;2023-07-24T14:53:07;22.70;99.90
2002;DHT22;1003;48.002;7.788;2023-07-24T14:55:35;22.60;99.90
2002;DHT22;1003;48.002;7.788;2023-07-24T14:58:03;22.70;99.90
2002;DHT22;1003;48.002;7.788;2023-07-24T15:00:31;22.80;99.90
2002;DHT22;1003;48.002;7.788;2023-07-24T15:02:59;22.70;99.90
2002;DHT22;1003;48.002;7.788;2023-07-24T15:05:27;22.70;99.90
2002;DHT22;1003;48.002;7.788;2023-07-24T15:07:54;22.60;99.90
2002;DHT22;1003;48.002;7.788;2023-07-24T15:10:21;22.60;99.90
2002;DHT22;1003;48.002;7.788;2023-07-24T15:12:48;22.60;99.90
2002;DHT22;1003;48.002;7.788;2023-07-24T15:15:17;22.60;99.90
2002;DHT22;1003;48.002;7.788;2023-07-24T15:17:43;22.60;99.90
2002;DHT22;1003;48.002;7.788;2023-07-24T15:20:11;22.50;99.90
2002;DHT22;1003;48.002;7.788;2023-07-24T15:22:40;22.50;99.90
2002;DHT22;1003;48.002;7.788;2023-07-24T15:25:07;22.50;99.90
2002;DHT22;1003;48.002;7.788;2023-07-24T15:27:36;22.40;99.90
2002;DHT22;1003;48.002;7.788;2023-07-24T15:30:06;22.60;99.90
2002;DHT22;1003;48.002;7.788;2023-07-24T15:32:35;22.60;99.90
2002;DHT22;1003;48.002;7.788;2023-07-24T15:35:03;22.80;99.90
2002;DHT22;1003;48.002;7.788;2023-07-24T15:37:31;23.10;99.90
2002;DHT22;1003;48.002;7.788;2023-07-24T15:39:59;23.30;99.90
2002;DHT22;1003;48.002;7.788;2023-07-24T15:42:26;23.30;99.90
2002;DHT22;1003;48.002;7.788;2023-07-24T15:44:53;23.30;99.90
2002;DHT22;1003;48.002;7.788;2023-07-24T15:47:20;23.10;99.90
2002;DHT22;1003;48.002;7.788;2023-07-24T15:49:50;23.20;99.90
2002;DHT22;1003;48.002;7.788;2023-07-24T15:52:17;23.10;99.90
2002;DHT22;1003;48.002;7.788;2023-07-24T15:54:44;23.10;99.90
2002;DHT22;1003;48.002;7.788;2023-07-24T15:57:11;23.20;99.90
2002;DHT22;1003;48.002;7.788;2023-07-24T15:59:38;23.20;99.90
2002;DHT22;1003;48.002;7.788;2023-07-24T16:02:06;23.30;99.90
2002;DHT22;1003;48.002;7.788;2023-07-24T16:04:33;23.20;99.90
2002;DHT22;1003;48.002;7.788;2023-07-24T16:07:02;23.20;99.90
2002;DHT22;1003;48.002;7.788;2023-07-24T16:09:29;23.30;99.90
2002;DHT22;1003;48.002;7.788;2023-07-24T16:11:56;23.40;99.90
2002;DHT22;1003;48.002;7.788;2023-07-24T16:14:23;23.40;99.90